Date,TemperatureHighF,TemperatureAvgF,TemperatureLowF,DewpointHighF,DewpointAvgF,DewpointLowF,HumidityHigh,HumidityAvg,HumidityLow,PressureMaxIn,PressureMinIn,WindSpeedMaxMPH,WindSpeedAvgMPH,GustSpeedMaxMPH,PrecipitationSumIn
2013-4-1,47,39,34,24,16,11,53,40,30,29.82,29.65,10,2,14,0.00
2013-4-2,43,35,26,18,12,8,66,40,25,29.99,29.78,10,2,14,0.00
2013-4-3,46,36,31,17,14,8,53,40,26,30.23,29.96,10,2,16,0.00
2013-4-4,55,40,24,27,19,12,79,47,23,30.31,29.97,10,2,13,0.00
2013-4-5,62,47,39,28,22,17,62,39,20,30.00,29.66,8,1,12,0.00
2013-4-6,52,40,31,20,13,4,52,35,17,30.22,29.88,7,1,10,0.00
2013-4-7,61,47,35,41,29,16,77,51,24,30.22,29.88,13,3,20,0.00
2013-4-8,67,54,38,41,39,32,94,60,35,30.03,29.90,3,1,7,0.00
2013-4-9,74,61,47,52,45,38,94,59,33,29.95,29.81,7,0,12,0.00
2013-4-10,64,54,48,53,50,41,98,85,62,29.95,29.74,3,0,12,0.00
2013-4-11,54,46,35,52,36,25,96,71,44,30.06,29.77,6,1,8,0.00
2013-4-12,42,38,34,41,37,31,96,93,88,30.06,29.70,2,0,5,0.00
2013-4-13,56,46,38,41,37,35,97,73,45,29.87,29.71,7,1,11,0.00
2013-4-14,54,44,37,39,32,24,92,64,35,30.17,29.85,11,1,12,0.00
2013-4-15,63,48,33,37,32,28,87,58,34,30.31,30.15,10,1,12,0.00
2013-4-16,64,55,44,54,44,31,85,67,55,30.29,30.02,14,2,18,0.00
2013-4-17,67,56,44,55,40,31,93,60,27,30.24,30.02,4,0,7,0.00
2013-4-18,63,51,37,49,39,34,93,68,36,30.29,30.04,11,2,17,0.00
2013-4-19,74,64,54,63,58,47,94,81,66,30.07,29.50,16,3,25,0.00
2013-4-20,63,50,40,57,35,20,97,63,30,30.25,29.56,9,2,18,0.00
2013-4-21,54,42,32,30,23,18,72,48,27,30.57,30.18,5,0,8,0.00
2013-4-22,62,46,33,33,28,21,80,52,23,30.63,30.42,7,0,12,0.00
2013-4-23,54,42,31,42,34,27,91,75,62,30.47,30.07,3,0,6,0.00
2013-4-24,75,54,33,51,43,32,97,70,37,30.10,29.68,12,2,16,0.00
2013-4-25,64,53,41,53,34,26,87,51,24,30.19,29.72,8,1,13,0.00
2013-4-26,64,49,34,39,33,29,91,58,29,30.37,30.18,5,0,6,0.00
2013-4-27,70,52,33,40,32,28,88,53,22,30.39,30.20,4,0,7,0.00
2013-4-28,74,56,38,42,36,28,89,51,23,30.24,30.08,10,1,14,0.00
2013-4-29,58,54,52,52,45,28,96,73,37,30.17,30.13,9,0,12,0.00
2013-4-30,72,59,49,50,41,30,95,59,23,30.25,30.15,8,1,11,0.00